createdAt,value
2019-02-28T00:03:27.723Z,8.53
2019-02-28T00:08:31.356Z,9.17
2019-02-28T00:13:35.086Z,8.53
2019-02-28T00:18:38.749Z,8.03
2019-02-28T00:23:42.405Z,8.00
2019-02-28T00:28:46.056Z,8.30
2019-02-28T00:33:49.777Z,8.57
2019-02-28T00:38:53.420Z,7.30
2019-02-28T00:43:57.881Z,7.47
2019-02-28T00:49:01.694Z,7.70
2019-02-28T00:54:08.590Z,7.40
2019-02-28T00:59:10.773Z,7.40
2019-02-28T01:04:14.426Z,7.37
2019-02-28T01:09:18.073Z,7.47
2019-02-28T01:14:21.994Z,7.40
2019-02-28T01:19:25.642Z,7.27
2019-02-28T01:24:34.435Z,8.03
2019-02-28T01:29:35.683Z,7.60
2019-02-28T01:34:40.086Z,7.73
2019-02-28T01:39:43.734Z,8.10
2019-02-28T01:44:47.389Z,7.40
2019-02-28T01:49:51.102Z,8.17
2019-02-28T01:54:54.764Z,7.90
2019-02-28T01:59:58.472Z,7.77
2019-02-28T02:05:02.134Z,7.73
2019-02-28T02:10:11.785Z,7.20
2019-02-28T02:15:16.851Z,7.97
2019-02-28T02:20:23.501Z,7.70
2019-02-28T02:25:26.206Z,7.90
2019-02-28T02:30:29.889Z,7.83
2019-02-28T02:35:33.654Z,7.20
2019-02-28T02:40:37.323Z,8.30
2019-02-28T02:45:43.487Z,7.83
2019-02-28T02:50:46.578Z,7.90
2019-02-28T02:55:50.271Z,7.77
2019-02-28T03:00:54.333Z,8.40
2019-02-28T03:05:58.039Z,7.73
2019-02-28T03:11:01.744Z,8.37
2019-02-28T03:16:05.475Z,8.77
2019-02-28T03:21:09.151Z,8.90
2019-02-28T03:26:12.826Z,9.13
2019-02-28T03:31:16.534Z,9.13
2019-02-28T03:36:20.265Z,9.77
2019-02-28T03:41:24.034Z,10.03
2019-02-28T03:46:27.983Z,10.57
2019-02-28T03:51:31.661Z,10.07
2019-02-28T03:56:35.346Z,11.00
2019-02-28T04:01:44.797Z,11.97
2019-02-28T04:06:44.534Z,12.30
2019-02-28T04:11:48.546Z,12.70
2019-02-28T04:16:54.064Z,12.97
2019-02-28T04:21:57.721Z,12.60
2019-02-28T04:27:05.905Z,12.87
2019-02-28T04:32:07.418Z,14.17
2019-02-28T04:37:11.111Z,13.90
2019-02-28T04:42:14.782Z,15.47
2019-02-28T04:47:18.471Z,14.83
2019-02-28T04:52:22.157Z,15.20
2019-02-28T04:57:25.867Z,16.17
2019-02-28T05:02:29.660Z,16.80
2019-02-28T05:07:33.354Z,17.60
2019-02-28T05:12:40.027Z,17.90
2019-02-28T05:17:42.791Z,18.23
2019-02-28T05:22:46.483Z,19.03
2019-02-28T05:27:50.248Z,19.53
2019-02-28T05:32:53.930Z,21.10
2019-02-28T05:37:57.614Z,21.60
2019-02-28T05:43:01.301Z,21.23
2019-02-28T05:48:05.000Z,23.40
2019-02-28T05:53:09.297Z,24.03
2019-02-28T05:58:17.585Z,25.13
2019-02-28T06:03:19.134Z,26.40
2019-02-28T06:08:23.141Z,26.43
2019-02-28T06:13:26.868Z,27.07
2019-02-28T06:18:33.348Z,29.20
2019-02-28T06:23:36.250Z,27.37
2019-02-28T06:28:39.921Z,28.70
2019-02-28T06:33:43.986Z,29.10
2019-02-28T06:38:47.683Z,29.63
2019-02-28T06:43:53.092Z,30.20
2019-02-28T06:49:01.650Z,30.50
2019-02-28T06:54:04.347Z,31.57
2019-02-28T06:59:08.362Z,31.17
2019-02-28T07:04:14.533Z,31.93
2019-02-28T07:09:17.566Z,31.50
2019-02-28T07:14:21.264Z,31.53
2019-02-28T07:19:26.224Z,34.17
2019-02-28T07:24:30.734Z,33.50
2019-02-28T07:29:34.793Z,33.80
2019-02-28T07:34:38.537Z,34.93
2019-02-28T07:39:42.261Z,35.60
2019-02-28T07:44:46.358Z,35.10
2019-02-28T07:49:50.356Z,33.70
2019-02-28T07:54:55.809Z,36.27
2019-02-28T08:00:00.039Z,35.83
2019-02-28T08:05:04.214Z,36.93
2019-02-28T08:10:12.754Z,35.10
2019-02-28T08:15:21.420Z,37.30
2019-02-28T08:20:23.785Z,36.53
2019-02-28T08:25:27.546Z,36.27
2019-02-28T08:30:31.323Z,36.77
2019-02-28T08:35:35.909Z,37.43
2019-02-28T08:40:39.721Z,35.23
2019-02-28T08:45:43.711Z,37.43
2019-02-28T08:50:47.401Z,36.63
2019-02-28T08:55:51.110Z,122.70
2019-02-28T09:00:54.802Z,100.03
2019-02-28T09:06:03.457Z,38.90
2019-02-28T09:11:04.358Z,37.47
2019-02-28T09:16:08.202Z,34.47
2019-02-28T09:21:12.223Z,34.37
2019-02-28T09:26:15.990Z,35.50
2019-02-28T09:31:19.942Z,36.93
2019-02-28T09:36:23.652Z,34.90
2019-02-28T09:41:27.347Z,34.20
2019-02-28T09:46:31.043Z,33.10
2019-02-28T09:51:34.762Z,34.07
2019-02-28T09:56:41.101Z,34.33
2019-02-28T10:01:43.854Z,35.23
2019-02-28T10:06:48.540Z,34.97
2019-02-28T10:11:53.046Z,34.87
2019-02-28T10:16:57.020Z,34.17
2019-02-28T10:22:00.703Z,33.97
2019-02-28T10:27:04.470Z,37.10
2019-02-28T10:32:08.975Z,35.07
2019-02-28T10:37:13.775Z,34.40
2019-02-28T10:42:17.461Z,34.83
2019-02-28T10:47:21.422Z,34.13
2019-02-28T10:52:26.896Z,34.23
2019-02-28T10:57:30.623Z,34.83
2019-02-28T11:02:34.495Z,34.80
2019-02-28T11:07:38.664Z,35.20
2019-02-28T11:12:42.746Z,34.77
2019-02-28T11:17:46.649Z,33.73
2019-02-28T11:22:50.502Z,34.73
2019-02-28T11:27:54.730Z,34.87
2019-02-28T11:33:03.259Z,35.73
2019-02-28T11:38:05.077Z,35.83
2019-02-28T11:43:09.222Z,32.93
2019-02-28T11:48:19.046Z,32.43
2019-02-28T11:53:19.239Z,33.50
2019-02-28T11:58:23.233Z,33.83
2019-02-28T12:03:26.930Z,34.53
2019-02-28T12:08:30.698Z,34.80
2019-02-28T12:13:34.458Z,33.10
2019-02-28T12:18:40.032Z,32.57
2019-02-28T12:23:43.913Z,33.10
2019-02-28T12:28:47.602Z,31.97
2019-02-28T12:33:53.385Z,31.23
2019-02-28T12:38:59.427Z,33.37
2019-02-28T12:44:02.195Z,33.07
2019-02-28T12:49:05.898Z,31.13
2019-02-28T12:54:09.946Z,32.80
2019-02-28T12:59:13.695Z,33.50
2019-02-28T13:04:17.406Z,31.33
2019-02-28T13:09:21.278Z,33.00
2019-02-28T13:14:25.102Z,32.43
2019-02-28T13:19:28.921Z,35.23
2019-02-28T13:24:32.928Z,35.80
2019-02-28T13:29:36.976Z,36.10
2019-02-28T13:34:40.807Z,36.10
2019-02-28T13:39:44.800Z,34.27
2019-02-28T13:44:48.668Z,34.40
2019-02-28T13:49:52.350Z,35.50
2019-02-28T13:54:56.030Z,35.33
2019-02-28T13:59:59.998Z,35.03
2019-02-28T14:05:04.234Z,34.33
2019-02-28T14:10:11.408Z,34.23
2019-02-28T14:15:17.479Z,33.90
2019-02-28T14:20:21.234Z,32.87
2019-02-28T14:25:25.603Z,34.20
2019-02-28T14:30:29.458Z,33.47
2019-02-28T14:35:35.538Z,32.33
2019-02-28T14:40:38.646Z,33.10
2019-02-28T14:45:43.723Z,34.33
2019-02-28T14:50:50.525Z,31.00
2019-02-28T14:55:53.194Z,31.07
2019-02-28T15:00:56.915Z,30.50
2019-02-28T15:06:00.865Z,29.53
2019-02-28T15:11:06.589Z,31.53
2019-02-28T15:16:10.044Z,28.87
2019-02-28T15:21:13.869Z,29.80
2019-02-28T15:26:18.463Z,28.70
2019-02-28T15:31:22.149Z,29.80
2019-02-28T15:36:25.911Z,28.80
2019-02-28T15:41:30.671Z,29.70
2019-02-28T15:46:35.988Z,29.60
2019-02-28T15:51:39.770Z,29.70
2019-02-28T15:56:43.459Z,30.43
2019-02-28T16:01:47.139Z,29.87
2019-02-28T16:06:56.526Z,29.70
2019-02-28T16:11:56.390Z,31.17
2019-02-28T16:17:02.779Z,30.57
2019-02-28T16:22:05.593Z,30.10
2019-02-28T16:27:09.393Z,30.60
2019-02-28T16:32:14.124Z,28.57
2019-02-28T16:37:18.563Z,28.70
2019-02-28T16:42:22.242Z,29.80
2019-02-28T16:47:25.934Z,29.40
2019-02-28T16:52:29.619Z,28.80
2019-02-28T16:57:33.301Z,30.03
2019-02-28T17:02:36.989Z,29.70
2019-02-28T17:07:43.572Z,29.70
2019-02-28T17:13:02.907Z,30.00
2019-02-28T17:18:10.753Z,29.47
2019-02-28T17:23:14.447Z,30.80
2019-02-28T17:28:36.236Z,31.03
2019-02-28T17:33:43.242Z,30.67
2019-02-28T17:38:45.664Z,30.57
2019-02-28T17:44:11.286Z,28.73
2019-02-28T17:50:10.600Z,30.07
2019-02-28T17:56:04.820Z,29.97
2019-02-28T18:01:45.382Z,27.93
2019-02-28T18:07:33.256Z,29.10
2019-02-28T18:13:30.334Z,28.40
2019-02-28T18:18:57.222Z,28.77
2019-02-28T18:24:54.551Z,28.30
2019-02-28T18:30:54.449Z,29.83
2019-02-28T18:35:58.281Z,28.87
2019-02-28T18:41:05.675Z,29.53
2019-02-28T18:46:08.783Z,29.70
2019-02-28T18:51:12.465Z,29.20
2019-02-28T18:56:16.156Z,30.23
2019-02-28T19:01:19.909Z,30.13
2019-02-28T19:06:23.704Z,30.03
2019-02-28T19:11:27.389Z,30.40
2019-02-28T19:16:31.158Z,30.73
2019-02-28T19:21:34.887Z,30.70
2019-02-28T19:26:39.018Z,30.33
2019-02-28T19:31:42.988Z,28.07
2019-02-28T19:36:46.971Z,31.17
2019-02-28T19:41:50.701Z,29.17
2019-02-28T19:46:54.722Z,29.10
2019-02-28T19:51:58.448Z,29.47
2019-02-28T19:57:02.285Z,28.57
2019-02-28T20:02:06.626Z,29.37
2019-02-28T20:07:10.406Z,30.97
2019-02-28T20:12:14.330Z,31.23
2019-02-28T20:17:18.413Z,32.13
2019-02-28T20:22:22.555Z,33.97
2019-02-28T20:27:26.418Z,32.10
2019-02-28T20:32:30.229Z,26.90
2019-02-28T20:37:34.494Z,29.07
2019-02-28T20:42:38.534Z,29.03
2019-02-28T20:47:44.088Z,28.93
2019-02-28T20:52:48.067Z,25.70
2019-02-28T20:57:51.785Z,25.90
2019-02-28T21:02:55.555Z,22.33
2019-02-28T21:07:59.511Z,20.47
2019-02-28T21:13:03.346Z,18.93
2019-02-28T21:18:07.351Z,19.87
2019-02-28T21:23:11.034Z,17.43
2019-02-28T21:28:14.717Z,16.30
2019-02-28T21:33:18.405Z,16.83
2019-02-28T21:38:22.206Z,16.40
2019-02-28T21:43:26.155Z,16.70
2019-02-28T21:48:29.833Z,15.43
2019-02-28T21:53:33.519Z,22.37
2019-02-28T21:58:37.222Z,18.53
2019-02-28T22:03:41.507Z,17.97
2019-02-28T22:08:45.207Z,16.90
2019-02-28T22:13:48.902Z,15.67
2019-02-28T22:18:52.578Z,15.80
2019-02-28T22:23:56.555Z,16.97
2019-02-28T22:29:00.225Z,22.17
2019-02-28T22:34:12.734Z,27.43
2019-02-28T22:39:16.429Z,26.97
2019-02-28T22:44:20.177Z,24.87
2019-02-28T22:49:23.869Z,27.63
2019-02-28T22:54:27.553Z,29.90
2019-02-28T22:59:31.251Z,29.33
2019-02-28T23:04:34.954Z,28.20
2019-02-28T23:09:38.642Z,25.23
2019-02-28T23:14:42.331Z,24.80
2019-02-28T23:19:46.086Z,23.87
2019-02-28T23:24:49.774Z,22.63
2019-02-28T23:30:27.150Z,22.97
2019-02-28T23:35:33.806Z,21.93
2019-02-28T23:40:37.497Z,21.13
2019-02-28T23:45:41.329Z,20.47
2019-02-28T23:50:45.017Z,20.30
2019-02-28T23:55:48.708Z,20.70
